• Join FlightAware (Why Join?)
  • Login
  • US Flag 
07:48PM EDT


 

Airport Tracker/Info


-or-


 

Live Flight TrackerFlight Track Log ✈ N269C ✈ 14-Jun-2013 ✈ KBOI - 3S8

Flight Track Log - Related Links

Times and Time Zones

All times are in EDT time to prevent confusion due to time zone crossing. See the N269C flight status page for this flight to view local times or setup timezone preferences in your user account.

Time Position Orientation Groundspeed Altitude Reporting Facility
EDT Latitude Longitude Course Direction KTS MPH feet Rate Location/Type
04:42PM 43.5711 -116.3494 260° West 132 152 5,800  Level Salt Lake Center
04:43PM 43.5669 -116.4050 264° West 149 171 6,300 540 Climbing Salt Lake Center
04:44PM 43.5594 -116.4628 260° West 153 176 7,000 720 Climbing Salt Lake Center
04:45PM 43.5519 -116.5247 261° West 148 170 7,800 780 Climbing Salt Lake Center
04:46PM 43.5241 -116.5318 259° West  Level FlightAware Approximate
04:46PM 43.5456 -116.5789 261° West 150 173 8,600  Level Salt Lake Center
04:47PM 43.5167 -116.5943 270° West  Level FlightAware Approximate
04:48PM 43.5392 -116.6300 260° West 144 166 9,500  Level Salt Lake Center
04:49PM 43.5317 -116.6872 260° West 135 155 10,500 780 Climbing Salt Lake Center
04:50PM 43.5258 -116.7375 261° West 138 159 11,200 720 Climbing Salt Lake Center
04:51PM 43.5178 -116.8017 260° West 154 177 12,100 720 Climbing Salt Lake Center
04:52PM 43.5122 -116.8561 262° West 150 173 12,800 720 Climbing Salt Lake Center
04:53PM 43.5044 -116.9222 261° West 155 178 13,600 780 Climbing Salt Lake Center
04:54PM 43.4967 -116.9758 259° West 151 174 14,500 840 Climbing Salt Lake Center
04:55PM 43.4894 -117.0389 261° West 150 173 15,400 720 Climbing Salt Lake Center
04:56PM 43.4828 -117.0903 260° West 146 168 16,100 720 Climbing Salt Lake Center
04:57PM 43.4764 -117.1450 261° West 148 170 16,900 720 Climbing Salt Lake Center
04:58PM 43.4686 -117.2111 261° West 156 180 17,600 360 Climbing Salt Lake Center
04:59PM 43.4611 -117.2714 260° West 168 193 17,700 120 Climbing Salt Lake Center
05:00PM 43.4522 -117.3508 261° West 186 214 17,900 120 Climbing Salt Lake Center
05:01PM 43.4433 -117.4208 260° West 192 221 18,000  Climbing Salt Lake Center
05:02PM 43.4331 -117.5042 260° West 197 227 18,000  Level Salt Lake Center
05:03PM 43.4233 -117.5753 259° West 197 227 18,000  Level Salt Lake Center
05:04PM 43.4128 -117.6561 260° West 195 224 18,000  Level Salt Lake Center
05:05PM 43.4036 -117.7250 260° West 193 222 18,000  Level Salt Lake Center
05:06PM 43.3947 -117.7942 260° West 191 220 18,000  Level Salt Lake Center
05:07PM 43.3839 -117.8761 260° West 194 223 18,000  Level Salt Lake Center
05:08PM 43.3744 -117.9461 260° West 195 224 18,000  Level Salt Lake Center
05:09PM 43.3653 -118.0297 261° West 198 228 18,000  Level Salt Lake Center
05:10PM 43.3544 -118.0983 258° West 195 224 18,000  Level Salt Lake Center
05:11PM 43.3431 -118.1789 259° West 189 217 18,000  Level Salt Lake Center
05:12PM 43.3350 -118.2500 261° West 195 224 18,000  Level Salt Lake Center
05:13PM 43.3253 -118.3292 260° West 193 222 18,000  Level Salt Lake Center
05:14PM 43.3153 -118.4003 259° West 191 220 18,000  Level Salt Lake Center
05:15PM 43.3058 -118.4722 260° West 191 220 18,000  Level Salt Lake Center
05:16PM 43.2956 -118.5436 259° West 191 220 18,000  Level Salt Lake Center
05:17PM 43.2858 -118.6172 260° West 194 223 18,000  Level Salt Lake Center
05:18PM 43.2750 -118.6883 258° West 193 222 18,000  Level Salt Lake Center
05:19PM 43.2656 -118.7608 260° West 193 222 18,000  Level Salt Lake Center
05:20PM 43.2536 -118.8450 259° West 190 219 18,000  Level Salt Lake Center
05:22PM 43.2394 -118.9408 259° West 194 223 18,000  Level Seattle Center
05:23PM 43.2297 -119.0100 259° West 194 223 18,000  Level Seattle Center
05:24PM 43.2203 -119.0817 260° West 197 227 18,000  Level Seattle Center
05:25PM 43.2083 -119.1611 258° West 193 222 18,000  Level Seattle Center
05:26PM 43.2017 -119.2097 259° West 193 222 18,000  Level Salt Lake Center
05:27PM 43.1881 -119.2961 258° West 193 222 18,000  Level Salt Lake Center
05:28PM 43.1769 -119.3689 258° West 195 224 18,000  Level Salt Lake Center
05:29PM 43.1675 -119.4408 260° West 193 222 18,000  Level Salt Lake Center
05:30PM 43.1575 -119.5122 259° West 192 221 18,000  Level Salt Lake Center
05:31PM 43.1467 -119.5847 258° West 192 221 18,000  Level Salt Lake Center
05:32PM 43.1361 -119.6544 258° West 190 219 18,000  Level Salt Lake Center
05:33PM 43.1250 -119.7250 258° West 190 219 18,000  Level Salt Lake Center
05:34PM 43.1133 -119.8128 260° West 193 222 18,000  Level Salt Lake Center
05:35PM 43.1017 -119.8808 257° West 188 216 18,000  Level Salt Lake Center
05:36PM 43.0925 -119.9517 260° West 188 216 18,000  Level Salt Lake Center
05:37PM 43.0808 -120.0169 256° West 184 212 18,000  Level Seattle Center
05:38PM 43.0683 -120.1008 258° West 187 215 18,000  Level Seattle Center
05:39PM 43.0581 -120.1719 259° West 189 217 18,000  Level Seattle Center
05:40PM 43.0472 -120.2417 258° West 190 219 18,000  Level Seattle Center
05:41PM 43.0356 -120.3125 257° West 190 219 18,000  Level Seattle Center
05:42PM 43.0239 -120.3822 257° West 192 221 18,000  Level Seattle Center
05:43PM 43.0131 -120.4531 258° West 192 221 18,000  Level Seattle Center
05:44PM 43.0022 -120.5208 258° West 190 219 18,000  Level Seattle Center
05:45PM 42.9917 -120.5914 258° West 189 217 18,000  Level Seattle Center
05:46PM 42.9811 -120.6619 258° West 190 219 18,000  Level Seattle Center
05:47PM 42.9675 -120.7467 258° West 190 219 18,000  Level Seattle Center
05:48PM 42.9553 -120.8214 257° West 192 221 18,000  Level Seattle Center
05:49PM 42.9436 -120.8939 258° West 194 223 18,000  Level Seattle Center
05:50PM 42.9325 -120.9636 258° West 190 219 18,100  Climbing Seattle Center
05:51PM 42.9239 -121.0317 260° West 186 214 18,000 -60 Descending Seattle Center
05:52PM 42.9128 -121.1014 258° West 186 214 18,000  Level Seattle Center
05:53PM 42.8967 -121.1775 254° West 202 232 18,000  Level Seattle Center
05:54PM 42.8864 -121.2475 259° West 196 226 18,000  Level Seattle Center
05:55PM 42.8775 -121.3211 261° West 195 224 18,000  Level Seattle Center
05:56PM 42.8778 -121.3914 270° West 191 220 18,000  Level Seattle Center
05:57PM 42.8789 -121.4614 271° West 185 213 18,000 -120 Level Seattle Center
05:58PM 42.8750 -121.5422 266° West 193 222 17,800 -240 Descending Seattle Center
06:00PM 42.8736 -121.6214 269° West 202 232 17,600 -360 Descending Seattle Center
06:01PM 42.8758 -121.7161 272° West 208 239 17,100 -540 Descending Seattle Center
06:02PM 42.8769 -121.8014 271° West 218 251 16,600 -480 Descending Seattle Center
06:03PM 42.8811 -121.8828 274° West 217 250 16,200 -480 Descending Seattle Center
06:04PM 42.8858 -121.9639 275° West 215 247 15,700 -480 Descending Seattle Center
06:05PM 42.8864 -122.0433 271° West 212 244 15,300 -300 Descending Seattle Center
06:06PM 42.8831 -122.1222 267° West 209 241 15,200 -360 Descending Seattle Center
06:07PM 42.9386 -122.1414 346° North 228 262 14,600 -540 Descending Seattle Center
06:08PM 42.9594 -122.0956 58° Northeast 241 277 14,200 -480 Descending Seattle Center
06:09PM 42.9092 -122.0967 181° South 221 254 13,700 -420 Descending Seattle Center
06:10PM 42.9492 -122.0806 16° North 214 246 13,400 -120 Descending Seattle Center
06:11PM 42.9550 -122.1475 277° West 197 227 13,500  Climbing Seattle Center
06:12PM 42.9331 -122.2142 246° West 195 224 13,400  Descending Seattle Center
06:13PM 42.9014 -122.2892 240° Southwest 191 220 13,500 -120 Climbing Seattle Center
06:14PM 42.8781 -122.3586 245° Southwest 201 231 13,200 -420 Descending Seattle Center
06:15PM 42.8611 -122.4344 253° West 211 243 12,700 -480 Descending Seattle Center
06:16PM 42.8403 -122.5078 249° West 210 242 12,300 -360 Descending Seattle Center
06:17PM 42.8194 -122.5811 249° West 209 241 12,000 -480 Descending Seattle Center
06:18PM 42.7969 -122.6544 247° West 211 243 11,400 -600 Descending Seattle Center
06:19PM 42.7717 -122.7281 245° Southwest 212 244 10,900 -540 Descending Seattle Center
06:20PM 42.7569 -122.8036 255° West 206 237 10,300 -540 Descending Seattle Center
06:21PM 42.7417 -122.8781 254° West 208 239 9,900 -540 Descending Seattle Center
06:22PM 42.7175 -122.9617 249° West 208 239 9,300 -660 Descending Seattle Center
06:23PM 42.7028 -123.0364 255° West 206 237 8,600 -300 Descending Seattle Center
06:24PM 42.6853 -123.1011 250° West 184 212 8,700 -60 Climbing Seattle Center
06:25PM 42.6628 -123.1603 243° Southwest 179 206 8,500 -420 Descending Seattle Center
06:26PM 42.6389 -123.2161 240° Southwest 172 198 7,900 -600 Descending Seattle Center